createdAt,value
2018-01-02T00:00:11.004Z,28.2
2018-01-02T00:01:10.955Z,28.2
2018-01-02T00:02:50.703Z,28.2
2018-01-02T00:03:52.802Z,28.2
2018-01-02T00:04:52.822Z,28.2
2018-01-02T00:05:50.982Z,28.2
2018-01-02T00:06:52.770Z,28.2
2018-01-02T00:07:52.814Z,28.2
2018-01-02T00:08:53.047Z,28.2
2018-01-02T00:09:51.016Z,28.2
2018-01-02T00:10:53.247Z,28.2
2018-01-02T00:11:53.337Z,28.2
2018-01-02T00:12:51.281Z,28.2
2018-01-02T00:13:51.550Z,28.2
2018-01-02T00:14:53.520Z,28.2
2018-01-02T00:15:53.580Z,28.2
2018-01-02T00:16:53.419Z,28.2
2018-01-02T00:17:53.629Z,28.2
2018-01-02T00:18:51.588Z,28.2
2018-01-02T00:19:53.807Z,28.2
2018-01-02T00:20:51.881Z,28.2
2018-01-02T00:21:53.827Z,28.2
2018-01-02T00:22:53.897Z,28.2
2018-01-02T00:23:51.821Z,28.2
2018-01-02T00:24:52.094Z,28.2
2018-01-02T00:25:51.928Z,28.2
2018-01-02T00:26:53.929Z,28.2
2018-01-02T00:27:54.189Z,28.2
2018-01-02T00:28:52.170Z,28.2
2018-01-02T00:29:52.444Z,28.2
2018-01-02T00:30:54.402Z,28.2
2018-01-02T00:31:52.527Z,28.2
2018-01-02T00:32:54.560Z,28.2
2018-01-02T00:33:54.595Z,28.2
2018-01-02T00:34:54.632Z,28.2
2018-01-02T00:35:52.566Z,28.2
2018-01-02T00:36:52.874Z,28.2
2018-01-02T00:37:52.919Z,28.2
2018-01-02T00:38:54.711Z,28.2
2018-01-02T00:39:52.995Z,28.2
2018-01-02T00:40:54.780Z,28.2
2018-01-02T00:41:53.111Z,28.2
2018-01-02T00:42:54.947Z,28.2
2018-01-02T00:43:53.092Z,28.2
2018-01-02T00:44:53.138Z,28.2
2018-01-02T00:45:53.149Z,28.2
2018-01-02T00:46:53.324Z,28.2
2018-01-02T00:47:53.186Z,28.2
2018-01-02T00:48:55.416Z,28.2
2018-01-02T00:49:55.171Z,28.2
2018-01-02T00:50:53.259Z,28.2
2018-01-02T00:51:53.574Z,28.2
2018-01-02T00:52:55.523Z,28.2
2018-01-02T00:53:55.415Z,28.2
2018-01-02T00:54:53.749Z,28.2
2018-01-02T00:55:55.518Z,28.2
2018-01-02T00:56:55.788Z,28.2
2018-01-02T00:57:55.805Z,28.2
2018-01-02T00:58:53.767Z,28.2
2018-01-02T00:59:55.992Z,28.2
2018-01-02T01:00:54.160Z,28.2
2018-01-02T01:01:55.851Z,28.2
2018-01-02T01:02:56.499Z,28.2
2018-01-02T01:03:54.311Z,28.3
2018-01-02T01:04:54.317Z,28.3
2018-01-02T01:05:54.175Z,28.2
2018-01-02T01:06:54.173Z,28.2
2018-01-02T01:07:54.226Z,28.2
2018-01-02T01:08:56.392Z,28.3
2018-01-02T01:09:54.379Z,28.3
2018-01-02T01:10:56.258Z,28.3
2018-01-02T01:11:56.535Z,28.3
2018-01-02T01:12:54.397Z,28.3
2018-01-02T01:13:56.637Z,28.3
2018-01-02T01:14:54.754Z,28.2
2018-01-02T01:15:55.388Z,28.3
2018-01-02T01:16:56.965Z,28.3
2018-01-02T01:17:54.711Z,28.3
2018-01-02T01:18:54.696Z,28.3
2018-01-02T01:19:56.918Z,28.3
2018-01-02T01:20:54.896Z,28.3
2018-01-02T01:21:55.103Z,28.3
2018-01-02T01:22:57.076Z,28.3
2018-01-02T01:23:55.122Z,28.3
2018-01-02T01:24:57.171Z,28.3
2018-01-02T01:25:57.113Z,28.3
2018-01-02T01:26:57.159Z,28.3
2018-01-02T01:27:55.292Z,28.3
2018-01-02T01:28:57.288Z,28.3
2018-01-02T01:29:55.185Z,28.3
2018-01-02T01:30:55.449Z,28.3
2018-01-02T01:31:55.470Z,28.3
2018-01-02T01:32:55.325Z,28.3
2018-01-02T01:33:55.350Z,28.3
2018-01-02T01:34:55.456Z,28.3
2018-01-02T01:35:55.663Z,28.3
2018-01-02T01:36:57.436Z,28.3
2018-01-02T01:37:55.784Z,28.3
2018-01-02T01:38:55.616Z,28.3
2018-01-02T01:39:55.700Z,28.3
2018-01-02T01:40:55.677Z,28.3
2018-01-02T01:41:55.777Z,28.3
2018-01-02T01:42:55.892Z,28.3
2018-01-02T01:43:58.095Z,28.3
2018-01-02T01:44:55.987Z,28.3
2018-01-02T01:45:57.962Z,28.3
2018-01-02T01:46:58.302Z,28.3
2018-01-02T01:47:56.184Z,28.3
2018-01-02T01:48:58.422Z,28.3
2018-01-02T01:49:58.486Z,28.3
2018-01-02T01:50:58.575Z,28.3
2018-01-02T01:51:56.563Z,28.3
2018-01-02T01:52:58.659Z,28.3
2018-01-02T01:53:56.626Z,28.3
2018-01-02T01:54:56.628Z,28.3
2018-01-02T01:55:56.850Z,28.3
2018-01-02T01:56:58.824Z,28.3
2018-01-02T01:57:57.015Z,28.3
2018-01-02T01:58:58.736Z,28.3
2018-01-02T01:59:56.890Z,28.3
2018-01-02T02:00:57.131Z,28.2
2018-01-02T02:01:56.981Z,28.3
2018-01-02T02:02:56.984Z,28.3
2018-01-02T02:03:57.279Z,28.3
2018-01-02T02:04:57.337Z,28.3
2018-01-02T02:05:57.392Z,28.3
2018-01-02T02:06:59.381Z,28.3
2018-01-02T02:07:59.228Z,28.3
2018-01-02T02:08:59.329Z,28.3
2018-01-02T02:09:57.648Z,28.3
2018-01-02T02:10:59.582Z,28.3
2018-01-02T02:11:57.447Z,28.3
2018-01-02T02:12:57.526Z,28.3
2018-01-02T02:13:57.651Z,28.3
2018-01-02T02:14:57.752Z,28.3
2018-01-02T02:15:57.816Z,28.3
2018-01-02T02:16:57.556Z,28.3
2018-01-02T02:17:57.678Z,28.3
2018-01-02T02:18:57.640Z,28.3
2018-01-02T02:19:59.841Z,28.3
2018-01-02T02:20:59.924Z,28.3
2018-01-02T02:21:59.977Z,28.3
2018-01-02T02:22:57.863Z,28.3
2018-01-02T02:23:57.905Z,28.3
2018-01-02T02:25:00.078Z,28.3
2018-01-02T02:26:00.167Z,28.3
2018-01-02T02:26:58.101Z,28.3
2018-01-02T02:27:58.384Z,28.3
2018-01-02T02:28:58.458Z,28.3
2018-01-02T02:29:58.507Z,28.3
2018-01-02T02:30:58.482Z,28.3
2018-01-02T02:31:58.374Z,28.3
2018-01-02T02:33:00.535Z,28.3
2018-01-02T02:34:00.692Z,28.3
2018-01-02T02:35:00.422Z,28.3
2018-01-02T02:35:58.560Z,28.3
2018-01-02T02:37:00.559Z,28.3
2018-01-02T02:38:00.657Z,28.3
2018-01-02T02:38:58.748Z,28.3
2018-01-02T02:39:58.782Z,28.3
2018-01-02T02:41:00.937Z,28.3
2018-01-02T02:41:58.938Z,28.3
2018-01-02T02:42:59.205Z,28.3
2018-01-02T02:44:00.978Z,28.3
2018-01-02T02:44:59.155Z,28.3
2018-01-02T02:45:59.372Z,28.3
2018-01-02T02:47:01.374Z,28.3
2018-01-02T02:47:59.285Z,28.3
2018-01-02T02:49:01.262Z,28.3
2018-01-02T02:49:59.432Z,28.3
2018-01-02T02:50:59.693Z,28.3
2018-01-02T02:51:59.679Z,28.3
2018-01-02T02:52:59.561Z,28.3
2018-01-02T02:54:01.517Z,28.3
2018-01-02T02:54:59.883Z,28.3
2018-01-02T02:56:01.829Z,28.3
2018-01-02T02:56:59.725Z,28.3
2018-01-02T02:57:59.936Z,28.3
2018-01-02T02:58:59.792Z,28.3
2018-01-02T02:59:59.846Z,28.3
2018-01-02T03:01:00.042Z,28.3
2018-01-02T03:02:02.058Z,28.3
2018-01-02T03:03:00.148Z,28.3
2018-01-02T03:04:02.065Z,28.2
2018-01-02T03:05:02.156Z,28.3
2018-01-02T03:06:02.199Z,28.3
2018-01-02T03:07:02.264Z,28.3
2018-01-02T03:08:00.366Z,28.2
2018-01-02T03:09:00.216Z,28.3
2018-01-02T03:10:00.278Z,28.3
2018-01-02T03:11:02.476Z,28.3
2018-01-02T03:12:00.619Z,28.3
2018-01-02T03:13:00.633Z,28.3
2018-01-02T03:14:00.676Z,28.3
2018-01-02T03:15:00.774Z,28.3
2018-01-02T03:16:00.505Z,28.3
2018-01-02T03:17:00.597Z,28.3
2018-01-02T03:18:00.600Z,28.3
2018-01-02T03:19:02.498Z,28.3
2018-01-02T03:20:00.834Z,28.3
2018-01-02T03:21:02.779Z,28.3
2018-01-02T03:22:02.781Z,28.3
2018-01-02T03:23:00.742Z,28.3
2018-01-02T03:24:02.717Z,28.3
2018-01-02T03:25:00.906Z,28.3
2018-01-02T03:26:03.094Z,28.3
2018-01-02T03:27:01.148Z,28.3
2018-01-02T03:28:02.940Z,28.3
2018-01-02T03:29:01.057Z,28.3
2018-01-02T03:30:01.317Z,28.3
2018-01-02T03:31:01.164Z,28.3
2018-01-02T03:32:01.230Z,28.3
2018-01-02T03:33:03.396Z,28.3
2018-01-02T03:34:03.386Z,28.3
2018-01-02T03:35:03.463Z,28.3
2018-01-02T03:36:01.280Z,28.3
2018-01-02T03:37:01.305Z,28.3
2018-01-02T03:38:01.375Z,28.3
2018-01-02T03:39:03.514Z,28.3
2018-01-02T03:40:01.459Z,28.3
2018-01-02T03:41:01.643Z,28.3
2018-01-02T03:42:01.571Z,28.3
2018-01-02T03:43:03.583Z,28.3
2018-01-02T03:44:03.896Z,28.3
2018-01-02T03:45:01.955Z,28.3
2018-01-02T03:46:03.943Z,28.3
2018-01-02T03:47:02.077Z,28.3
2018-01-02T03:48:04.018Z,28.3
2018-01-02T03:49:03.827Z,28.3
2018-01-02T03:50:03.905Z,28.3
2018-01-02T03:51:02.273Z,28.3
2018-01-02T03:52:04.223Z,28.3
2018-01-02T03:53:02.153Z,28.3
2018-01-02T03:54:04.305Z,28.3
2018-01-02T03:55:02.290Z,28.3
2018-01-02T03:56:02.579Z,28.3
2018-01-02T03:57:02.585Z,28.3
2018-01-02T03:58:04.497Z,28.3
2018-01-02T03:59:02.366Z,28.3
2018-01-02T04:00:02.466Z,28.3
2018-01-02T04:01:04.931Z,28.3
2018-01-02T04:02:02.569Z,28.3
2018-01-02T04:03:02.823Z,28.3
2018-01-02T04:04:04.764Z,28.3
2018-01-02T04:05:02.701Z,28.3
2018-01-02T04:06:02.892Z,28.3
2018-01-02T04:07:02.765Z,28.3
2018-01-02T04:08:02.841Z,28.3
2018-01-02T04:09:03.044Z,28.3
2018-01-02T04:10:04.752Z,28.3
2018-01-02T04:11:02.859Z,28.3
2018-01-02T04:12:05.056Z,28.3
2018-01-02T04:13:03.025Z,28.3
2018-01-02T04:14:03.208Z,28.3
2018-01-02T04:15:03.318Z,28.3
2018-01-02T04:16:03.196Z,28.3
2018-01-02T04:17:05.365Z,28.3
2018-01-02T04:18:03.483Z,28.3
2018-01-02T04:19:05.230Z,28.3
2018-01-02T04:20:03.609Z,28.3
2018-01-02T04:21:05.336Z,28.3
2018-01-02T04:22:05.378Z,28.3
2018-01-02T04:23:03.728Z,28.3
2018-01-02T04:24:03.567Z,28.3
2018-01-02T04:25:05.766Z,28.3
2018-01-02T04:26:05.803Z,28.3
2018-01-02T04:27:05.874Z,28.3
2018-01-02T04:28:05.956Z,28.3
2018-01-02T04:29:04.045Z,28.3
2018-01-02T04:30:04.086Z,28.3
2018-01-02T04:31:03.837Z,28.3
2018-01-02T04:32:06.122Z,28.3
2018-01-02T04:33:04.119Z,28.3
2018-01-02T04:34:03.973Z,28.3
2018-01-02T04:35:04.215Z,28.3
2018-01-02T04:36:04.239Z,28.3
2018-01-02T04:37:04.101Z,28.3
2018-01-02T04:38:04.314Z,28.3
2018-01-02T04:39:04.158Z,28.3
2018-01-02T04:40:04.254Z,28.3
2018-01-02T04:41:06.434Z,28.3
2018-01-02T04:42:04.355Z,28.3
2018-01-02T04:43:06.345Z,28.3
2018-01-02T04:44:04.697Z,28.3
2018-01-02T04:45:04.733Z,28.3
2018-01-02T04:46:04.708Z,28.3
2018-01-02T04:47:04.569Z,28.3
2018-01-02T04:48:04.839Z,28.3
2018-01-02T04:49:04.886Z,28.3
2018-01-02T04:50:04.889Z,28.4
2018-01-02T04:51:04.958Z,28.9
2018-01-02T04:52:06.967Z,29.1
2018-01-02T04:53:04.958Z,29.3
2018-01-02T04:54:04.905Z,29.6
2018-01-02T04:55:05.184Z,30.1
2018-01-02T04:56:07.177Z,30.4
2018-01-02T04:57:05.023Z,30.7
2018-01-02T04:58:05.291Z,30.8
2018-01-02T04:59:07.326Z,31
2018-01-02T05:00:05.397Z,31.1
2018-01-02T05:01:07.409Z,31.2
2018-01-02T05:02:05.342Z,31.3
2018-01-02T05:03:05.402Z,31.4
2018-01-02T05:04:05.480Z,31.4
2018-01-02T05:05:07.393Z,31.4
2018-01-02T05:06:05.508Z,31.4
2018-01-02T05:07:05.544Z,31.4
2018-01-02T05:08:05.877Z,31.3
2018-01-02T05:09:07.610Z,31.3
2018-01-02T05:10:05.943Z,31.3
2018-01-02T05:11:05.810Z,31.3
2018-01-02T05:12:05.837Z,31.2
2018-01-02T05:13:06.122Z,31.2
2018-01-02T05:14:06.009Z,31.2
2018-01-02T05:15:06.096Z,31.2
2018-01-02T05:16:08.287Z,31.2
2018-01-02T05:17:06.244Z,31.2
2018-01-02T05:18:08.459Z,31.1
2018-01-02T05:19:08.279Z,31.1
2018-01-02T05:20:08.519Z,31.1
2018-01-02T05:21:06.486Z,31.1
2018-01-02T05:22:06.734Z,31.1
2018-01-02T05:23:06.590Z,31.1
2018-01-02T05:24:08.814Z,31
2018-01-02T05:25:06.700Z,31
2018-01-02T05:26:06.992Z,31
2018-01-02T05:27:06.869Z,31
2018-01-02T05:28:08.814Z,31
2018-01-02T05:29:09.134Z,31
2018-01-02T05:30:07.084Z,30.9
2018-01-02T05:31:07.168Z,30.9
2018-01-02T05:32:09.103Z,30.9
2018-01-02T05:33:07.469Z,30.9
2018-01-02T05:34:09.450Z,30.9
2018-01-02T05:35:09.562Z,30.9
2018-01-02T05:36:09.497Z,30.9
2018-01-02T05:37:07.469Z,30.8
2018-01-02T05:38:07.522Z,30.8
2018-01-02T05:39:07.512Z,30.8
2018-01-02T05:40:09.722Z,30.8
2018-01-02T05:41:07.620Z,30.8
2018-01-02T05:42:07.676Z,30.8
2018-01-02T05:43:07.924Z,30.8
2018-01-02T05:44:09.672Z,30.8
2018-01-02T05:45:09.953Z,30.7
2018-01-02T05:46:07.875Z,30.7
2018-01-02T05:47:08.080Z,30.7
2018-01-02T05:48:10.051Z,30.7
2018-01-02T05:49:07.998Z,30.7
2018-01-02T05:50:10.175Z,30.7
2018-01-02T05:51:10.251Z,30.6
2018-01-02T05:52:08.159Z,30.6
2018-01-02T05:53:10.117Z,30.6
2018-01-02T05:54:08.445Z,30.6
2018-01-02T05:55:08.306Z,30.6
2018-01-02T05:56:10.480Z,30.6
2018-01-02T05:57:10.345Z,30.6
2018-01-02T05:58:08.474Z,30.5
2018-01-02T05:59:08.593Z,30.5
2018-01-02T06:00:08.573Z,30.5
2018-01-02T06:01:08.844Z,30.5
2018-01-02T06:02:10.623Z,30.5
2018-01-02T06:03:08.723Z,30.5
2018-01-02T06:04:10.852Z,30.5
2018-01-02T06:05:10.862Z,30.5
2018-01-02T06:06:08.818Z,30.4
2018-01-02T06:07:08.817Z,30.4
2018-01-02T06:08:10.859Z,30.4
2018-01-02T06:09:10.933Z,30.4
2018-01-02T06:10:09.053Z,30.4
2018-01-02T06:11:09.111Z,30.4
2018-01-02T06:12:11.189Z,30.4
2018-01-02T06:13:11.130Z,30.3
2018-01-02T06:14:09.438Z,30.3
2018-01-02T06:15:09.341Z,30.3
2018-01-02T06:16:09.513Z,30.3
2018-01-02T06:17:11.682Z,30.3
2018-01-02T06:18:11.690Z,30.3
2018-01-02T06:19:09.725Z,30.3
2018-01-02T06:20:09.835Z,30.3
2018-01-02T06:21:09.695Z,30.3
2018-01-02T06:22:09.980Z,30.2
2018-01-02T06:23:11.878Z,30.2
2018-01-02T06:24:12.003Z,30.2
2018-01-02T06:25:10.134Z,30.2
2018-01-02T06:26:10.164Z,30.2
2018-01-02T06:27:09.933Z,30.2
2018-01-02T06:28:10.175Z,30.2
2018-01-02T06:29:11.981Z,30.2
2018-01-02T06:30:10.303Z,30.1
2018-01-02T06:31:12.149Z,30.1
2018-01-02T06:32:10.213Z,30.1
2018-01-02T06:33:12.339Z,30.1
2018-01-02T06:34:10.523Z,30.1
2018-01-02T06:35:10.423Z,30.1
2018-01-02T06:36:10.620Z,30.1
2018-01-02T06:37:10.512Z,30.1
2018-01-02T06:38:12.695Z,30.1
2018-01-02T06:39:10.830Z,30
2018-01-02T06:40:10.644Z,30
2018-01-02T06:41:12.632Z,29.6
2018-01-02T06:42:12.686Z,29.5
2018-01-02T06:43:10.874Z,29.7
2018-01-02T06:44:10.899Z,30
2018-01-02T06:45:10.937Z,30.3
2018-01-02T06:46:12.920Z,30.5
2018-01-02T06:47:11.040Z,30.7
2018-01-02T06:48:11.113Z,31
2018-01-02T06:49:13.367Z,31.2
2018-01-02T06:50:13.144Z,31.4
2018-01-02T06:51:11.583Z,31.6
2018-01-02T06:52:13.532Z,31.8
2018-01-02T06:53:11.437Z,31.9
2018-01-02T06:54:13.579Z,32.1
2018-01-02T06:55:11.662Z,32.2
2018-01-02T06:56:11.716Z,32.3
2018-01-02T06:57:11.773Z,32.4
2018-01-02T06:58:11.745Z,32.6
2018-01-02T06:59:13.513Z,32.8
2018-01-02T07:00:11.646Z,33.1
2018-01-02T07:01:11.883Z,33.3
2018-01-02T07:02:11.901Z,33.3
2018-01-02T07:03:11.996Z,33.4
2018-01-02T07:04:11.988Z,33.5
2018-01-02T07:05:14.056Z,33.7
2018-01-02T07:06:14.048Z,33.7
2018-01-02T07:07:11.994Z,33.9
2018-01-02T07:08:12.319Z,34
2018-01-02T07:09:14.250Z,34.2
2018-01-02T07:10:12.155Z,34.3
2018-01-02T07:11:12.489Z,34.4
2018-01-02T07:12:14.460Z,34.4
2018-01-02T07:13:14.516Z,34.5
2018-01-02T07:14:12.601Z,34.6
2018-01-02T07:15:12.481Z,34.6
2018-01-02T07:16:14.543Z,34.7
2018-01-02T07:17:12.477Z,34.8
2018-01-02T07:18:12.766Z,34.8
2018-01-02T07:19:12.595Z,34.9
2018-01-02T07:20:14.249Z,34.9
2018-01-02T07:21:12.913Z,34.9
2018-01-02T07:22:14.940Z,35
2018-01-02T07:23:14.721Z,35.1
2018-01-02T07:24:15.018Z,35.1
2018-01-02T07:25:15.092Z,35.1
2018-01-02T07:26:13.027Z,35.2
2018-01-02T07:27:13.059Z,35.2
2018-01-02T07:28:15.216Z,35.3
2018-01-02T07:29:15.216Z,35.4
2018-01-02T07:30:13.107Z,35.5
2018-01-02T07:31:13.390Z,35.6
2018-01-02T07:32:13.222Z,35.8
2018-01-02T07:33:15.374Z,35.8
2018-01-02T07:34:15.183Z,36
2018-01-02T07:35:15.436Z,36
2018-01-02T07:36:13.400Z,36
2018-01-02T07:37:13.492Z,35.9
2018-01-02T07:38:15.644Z,36
2018-01-02T07:39:13.754Z,36
2018-01-02T07:40:13.854Z,35.9
2018-01-02T07:41:13.703Z,35.9
2018-01-02T07:42:13.764Z,35.9
2018-01-02T07:43:15.801Z,35.9
2018-01-02T07:44:13.916Z,36
2018-01-02T07:45:15.840Z,36.1
2018-01-02T07:46:13.978Z,36.2
2018-01-02T07:47:16.156Z,36.3
2018-01-02T07:48:16.238Z,36.3
2018-01-02T07:49:14.390Z,36.3
2018-01-02T07:50:14.164Z,36.4
2018-01-02T07:51:16.102Z,36.5
2018-01-02T07:52:14.412Z,36.4
2018-01-02T07:53:14.239Z,36.5
2018-01-02T07:54:16.198Z,36.5
2018-01-02T07:55:16.189Z,36.6
2018-01-02T07:56:14.348Z,36.6
2018-01-02T07:57:14.364Z,36.6
2018-01-02T07:58:14.649Z,36.7
2018-01-02T07:59:16.622Z,36.8
2018-01-02T08:00:16.676Z,36.9
2018-01-02T08:01:14.590Z,36.9
2018-01-02T08:02:16.738Z,36.9
2018-01-02T08:03:14.664Z,36.9
2018-01-02T08:04:16.848Z,36.9
2018-01-02T08:05:14.768Z,36.9
2018-01-02T08:06:14.950Z,36.9
2018-01-02T08:07:14.837Z,36.9
2018-01-02T08:08:14.873Z,36.8
2018-01-02T08:09:14.991Z,36.9
2018-01-02T08:10:15.238Z,36.9
2018-01-02T08:11:15.135Z,36.9
2018-01-02T08:12:15.178Z,37
2018-01-02T08:13:17.198Z,37
2018-01-02T08:14:15.567Z,36.9
2018-01-02T08:15:17.546Z,36.9
2018-01-02T08:16:15.682Z,37
2018-01-02T08:17:15.713Z,37.2
2018-01-02T08:18:17.751Z,37.2
2018-01-02T08:19:15.639Z,37.1
2018-01-02T08:20:15.949Z,37
2018-01-02T08:21:15.839Z,36.8
2018-01-02T08:22:16.138Z,36.7
2018-01-02T08:23:16.102Z,36.5
2018-01-02T08:24:15.994Z,36.3
2018-01-02T08:25:15.982Z,36.2
2018-01-02T08:26:16.100Z,36
2018-01-02T08:27:16.028Z,35.9
2018-01-02T08:28:16.058Z,35.7
2018-01-02T08:29:18.198Z,35.6
2018-01-02T08:30:18.238Z,35.4
2018-01-02T08:31:16.402Z,35.3
2018-01-02T08:32:16.272Z,35.2
2018-01-02T08:33:18.279Z,35.1
2018-01-02T08:34:16.538Z,35
2018-01-02T08:35:18.489Z,34.9
2018-01-02T08:36:16.542Z,34.9
2018-01-02T08:37:16.628Z,34.8
2018-01-02T08:38:16.502Z,34.7
2018-01-02T08:39:16.724Z,34.7
2018-01-02T08:40:16.836Z,34.6
2018-01-02T08:41:18.804Z,34.5
2018-01-02T08:42:16.673Z,34.4
2018-01-02T08:43:18.889Z,34.4
2018-01-02T08:44:18.900Z,34.3
2018-01-02T08:45:16.790Z,34.2
2018-01-02T08:46:18.965Z,34.2
2018-01-02T08:47:19.042Z,34.1
2018-01-02T08:48:17.141Z,34.1
2018-01-02T08:49:19.279Z,34.1
2018-01-02T08:50:18.906Z,34
2018-01-02T08:51:17.076Z,34
2018-01-02T08:52:19.270Z,33.9
2018-01-02T08:53:17.127Z,33.9
2018-01-02T08:54:17.452Z,33.9
2018-01-02T08:55:17.353Z,33.8
2018-01-02T08:56:19.295Z,33.8
2018-01-02T08:57:17.676Z,33.7
2018-01-02T08:58:19.380Z,33.7
2018-01-02T08:59:19.634Z,33.7
2018-01-02T09:00:17.814Z,33.7
2018-01-02T09:01:17.627Z,33.6
2018-01-02T09:02:19.964Z,33.6
2018-01-02T09:03:17.825Z,33.6
2018-01-02T09:04:19.975Z,33.6
2018-01-02T09:05:18.114Z,33.6
2018-01-02T09:06:18.097Z,33.6
2018-01-02T09:07:17.894Z,33.5
2018-01-02T09:08:19.808Z,33.5
2018-01-02T09:09:17.950Z,33.5
2018-01-02T09:10:20.212Z,33.4
2018-01-02T09:11:18.293Z,33.4
2018-01-02T09:12:20.279Z,33.5
2018-01-02T09:13:18.209Z,33.5
2018-01-02T09:14:18.429Z,33.4
2018-01-02T09:15:18.302Z,33.4
2018-01-02T09:16:18.553Z,33.4
2018-01-02T09:17:18.632Z,33.4
2018-01-02T09:18:20.374Z,33.4
2018-01-02T09:19:20.467Z,33.3
2018-01-02T09:20:18.706Z,33.3
2018-01-02T09:21:20.723Z,33.3
2018-01-02T09:22:18.705Z,33.2
2018-01-02T09:23:18.905Z,33.2
2018-01-02T09:24:18.926Z,33.2
2018-01-02T09:25:18.828Z,33.2
2018-01-02T09:26:19.276Z,33.2
2018-01-02T09:27:21.172Z,33.2
2018-01-02T09:28:19.259Z,33.2
2018-01-02T09:29:19.147Z,33.2
2018-01-02T09:30:21.297Z,33.2
2018-01-02T09:31:19.160Z,33.1
2018-01-02T09:32:19.510Z,33.1
2018-01-02T09:33:21.438Z,33.1
2018-01-02T09:34:19.605Z,33.1
2018-01-02T09:35:19.407Z,33.1
2018-01-02T09:36:21.631Z,33.1
2018-01-02T09:37:19.773Z,33.1
2018-01-02T09:38:19.635Z,33.1
2018-01-02T09:39:19.850Z,33
2018-01-02T09:40:19.717Z,33
2018-01-02T09:41:19.912Z,33
2018-01-02T09:42:21.930Z,33
2018-01-02T09:43:20.017Z,33
2018-01-02T09:44:20.073Z,33
2018-01-02T09:45:19.959Z,33
2018-01-02T09:46:19.985Z,33
2018-01-02T09:47:22.197Z,33
2018-01-02T09:48:20.328Z,33
2018-01-02T09:49:20.217Z,33
2018-01-02T09:50:20.893Z,33
2018-01-02T09:51:22.443Z,33
2018-01-02T09:52:22.273Z,33
2018-01-02T09:53:20.452Z,33
2018-01-02T09:54:20.500Z,33
2018-01-02T09:55:22.733Z,33
2018-01-02T09:56:20.652Z,33
2018-01-02T09:57:22.606Z,33
2018-01-02T09:58:22.898Z,33.1
2018-01-02T09:59:20.994Z,33
2018-01-02T10:00:20.813Z,33
2018-01-02T10:01:20.920Z,33
2018-01-02T10:02:20.895Z,33
2018-01-02T10:03:22.833Z,33
2018-01-02T10:04:21.045Z,33.1
2018-01-02T10:05:21.349Z,33.1
2018-01-02T10:06:21.335Z,33.1
2018-01-02T10:07:21.264Z,33.1
2018-01-02T10:08:21.437Z,33.1
2018-01-02T10:09:23.206Z,33.1
2018-01-02T10:10:23.201Z,33.2
2018-01-02T10:11:21.371Z,33.2
2018-01-02T10:12:23.298Z,33.2
2018-01-02T10:13:21.640Z,33.2
2018-01-02T10:14:21.656Z,33.2
2018-01-02T10:15:21.493Z,33.2
2018-01-02T10:16:21.548Z,33.2
2018-01-02T10:17:23.488Z,33.2
2018-01-02T10:18:21.596Z,33.3
2018-01-02T10:19:23.636Z,33.3
2018-01-02T10:20:21.756Z,33.3
2018-01-02T10:21:23.888Z,33.3
2018-01-02T10:22:21.743Z,33.3
2018-01-02T10:23:24.013Z,33.3
2018-01-02T10:24:23.801Z,33.3
2018-01-02T10:25:21.939Z,33.3
2018-01-02T10:26:22.127Z,33.3
2018-01-02T10:27:21.934Z,33.3
2018-01-02T10:28:24.186Z,33.4
2018-01-02T10:29:23.972Z,33.4
2018-01-02T10:30:22.015Z,33.4
2018-01-02T10:31:22.092Z,33.4
2018-01-02T10:32:22.161Z,33.5
2018-01-02T10:33:22.113Z,33.5
2018-01-02T10:34:22.383Z,33.5
2018-01-02T10:35:22.159Z,33.5
2018-01-02T10:36:22.413Z,33.5
2018-01-02T10:37:22.262Z,33.5
2018-01-02T10:38:24.258Z,33.5
2018-01-02T10:39:22.592Z,33.5
2018-01-02T10:40:24.616Z,33.5
2018-01-02T10:41:24.691Z,33.6
2018-01-02T10:42:24.791Z,33.5
2018-01-02T10:43:24.960Z,33.5
2018-01-02T10:44:23.053Z,33.5
2018-01-02T10:45:23.185Z,33.5
2018-01-02T10:46:22.934Z,33.5
2018-01-02T10:47:23.182Z,33.6
2018-01-02T10:48:23.220Z,33.6
2018-01-02T10:49:23.262Z,33.6
2018-01-02T10:50:25.099Z,33.6
2018-01-02T10:51:25.274Z,33.6
2018-01-02T10:52:23.183Z,33.6
2018-01-02T10:53:23.474Z,33.6
2018-01-02T10:54:23.290Z,33.6
2018-01-02T10:55:25.305Z,33.5
2018-01-02T10:56:23.638Z,33.5
2018-01-02T10:57:25.378Z,33.5
2018-01-02T10:58:23.510Z,33.5
2018-01-02T10:59:25.688Z,33.5
2018-01-02T11:00:23.821Z,33.4
2018-01-02T11:01:25.762Z,33.4
2018-01-02T11:02:25.967Z,33.4
2018-01-02T11:03:23.769Z,33.4
2018-01-02T11:04:25.947Z,33.3
2018-01-02T11:05:24.108Z,33.3
2018-01-02T11:06:23.968Z,33.2
2018-01-02T11:07:24.256Z,33.1
2018-01-02T11:08:26.061Z,33.1
2018-01-02T11:09:24.608Z,32.9
2018-01-02T11:10:24.357Z,32.7
2018-01-02T11:11:26.302Z,32.6
2018-01-02T11:12:24.353Z,32.6
2018-01-02T11:13:24.434Z,32.6
2018-01-02T11:14:24.373Z,32.5
2018-01-02T11:15:24.371Z,32.4
2018-01-02T11:16:26.515Z,32.3
2018-01-02T11:17:26.635Z,32.2
2018-01-02T11:18:24.455Z,32
2018-01-02T11:19:30.280Z,31.8
2018-01-02T11:20:27.512Z,31.5
2018-01-02T11:21:25.319Z,31.4
2018-01-02T11:22:25.425Z,31.4
2018-01-02T11:23:24.841Z,31.3
2018-01-02T11:24:26.616Z,31.2
2018-01-02T11:25:24.648Z,31.1
2018-01-02T11:26:24.766Z,31
2018-01-02T11:27:26.958Z,30.9
2018-01-02T11:28:26.972Z,30.8
2018-01-02T11:29:24.873Z,30.7
2018-01-02T11:30:25.179Z,30.6
2018-01-02T11:31:26.933Z,30.5
2018-01-02T11:32:27.180Z,30.4
2018-01-02T11:33:25.121Z,30.3
2018-01-02T11:34:25.172Z,30.2
2018-01-02T11:35:25.381Z,30.2
2018-01-02T11:36:27.399Z,30.3
2018-01-02T11:37:27.436Z,30.5
2018-01-02T11:38:27.287Z,30.6
2018-01-02T11:39:25.385Z,30.8
2018-01-02T11:40:25.878Z,30.9
2018-01-02T11:41:27.592Z,31.1
2018-01-02T11:42:27.532Z,31.3
2018-01-02T11:43:27.873Z,31.4
2018-01-02T11:44:27.712Z,31.5
2018-01-02T11:45:25.843Z,31.6
2018-01-02T11:46:25.652Z,31.7
2018-01-02T11:47:25.732Z,31.8
2018-01-02T11:48:27.747Z,31.9
2018-01-02T11:49:27.994Z,32
2018-01-02T11:50:26.067Z,32.1
2018-01-02T11:51:25.880Z,32.2
2018-01-02T11:52:25.928Z,32.2
2018-01-02T11:53:27.856Z,32.2
2018-01-02T11:54:27.893Z,32.3
2018-01-02T11:55:27.901Z,32.4
2018-01-02T11:56:26.025Z,32.4
2018-01-02T11:57:26.676Z,32.5
2018-01-02T11:58:28.964Z,32.5
2018-01-02T11:59:26.665Z,32.6
2018-01-02T12:00:29.462Z,32.6
2018-01-02T12:01:26.769Z,32.6
2018-01-02T12:02:27.077Z,32.7
2018-01-02T12:03:28.478Z,32.7
2018-01-02T12:04:28.531Z,32.8
2018-01-02T12:05:28.563Z,32.8
2018-01-02T12:06:26.354Z,32.8
2018-01-02T12:07:26.564Z,32.9
2018-01-02T12:08:28.568Z,33
2018-01-02T12:09:26.762Z,33
2018-01-02T12:10:28.728Z,33
2018-01-02T12:11:26.648Z,33.1
2018-01-02T12:12:28.546Z,33.1
2018-01-02T12:13:28.857Z,33.1
2018-01-02T12:14:26.765Z,33.1
2018-01-02T12:15:28.711Z,33.2
2018-01-02T12:16:27.028Z,33.2
2018-01-02T12:17:29.055Z,33.2
2018-01-02T12:18:26.992Z,33.2
2018-01-02T12:19:27.234Z,33.2
2018-01-02T12:20:27.224Z,33.3
2018-01-02T12:21:27.228Z,33.3
2018-01-02T12:22:27.056Z,33.2
2018-01-02T12:23:27.147Z,33.1
2018-01-02T12:24:27.182Z,33
2018-01-02T12:25:29.446Z,32.9
2018-01-02T12:26:27.338Z,32.8
2018-01-02T12:27:27.827Z,32.8
2018-01-02T12:28:30.845Z,32.7
2018-01-02T12:29:28.422Z,32.7
2018-01-02T12:30:28.433Z,32.7
2018-01-02T12:31:27.751Z,32.7
2018-01-02T12:32:27.744Z,32.7
2018-01-02T12:33:27.679Z,32.7
2018-01-02T12:34:27.952Z,32.8
2018-01-02T12:35:29.815Z,32.8
2018-01-02T12:36:27.962Z,32.8
2018-01-02T12:37:30.010Z,32.8
2018-01-02T12:38:28.131Z,32.7
2018-01-02T12:39:30.079Z,32.6
2018-01-02T12:40:27.951Z,32.6
2018-01-02T12:41:28.006Z,32.5
2018-01-02T12:42:28.062Z,32.4
2018-01-02T12:43:28.113Z,32.3
2018-01-02T12:44:28.345Z,32.2
2018-01-02T12:45:30.355Z,32.2
2018-01-02T12:46:30.158Z,32.2
2018-01-02T12:47:31.096Z,32.2
2018-01-02T12:48:29.107Z,32.2
2018-01-02T12:49:28.553Z,32.2
2018-01-02T12:50:28.920Z,32.2
2018-01-02T12:51:31.014Z,32.2
2018-01-02T12:52:29.029Z,32.2
2018-01-02T12:53:28.589Z,32.2
2018-01-02T12:54:28.633Z,32.2
2018-01-02T12:55:29.077Z,32.3
2018-01-02T12:56:28.592Z,32.2
2018-01-02T12:57:30.794Z,32.2
2018-01-02T12:58:28.675Z,32.2
2018-01-02T12:59:30.872Z,32.2
2018-01-02T13:00:28.836Z,32.2
2018-01-02T13:01:28.906Z,32.2
2018-01-02T13:02:31.096Z,32.2
2018-01-02T13:03:29.207Z,32.2
2018-01-02T13:04:31.194Z,32.3
2018-01-02T13:05:29.213Z,32.3
2018-01-02T13:06:29.178Z,32.3
2018-01-02T13:07:29.345Z,32.3
2018-01-02T13:08:31.159Z,32.4
2018-01-02T13:09:31.139Z,32.4
2018-01-02T13:10:31.315Z,32.4
2018-01-02T13:11:31.311Z,32.4
2018-01-02T13:12:29.502Z,32.4
2018-01-02T13:13:31.677Z,32.4
2018-01-02T13:14:31.755Z,32.4
2018-01-02T13:15:29.713Z,32.5
2018-01-02T13:16:31.621Z,32.5
2018-01-02T13:17:29.776Z,32.4
2018-01-02T13:18:31.926Z,32.5
2018-01-02T13:19:30.054Z,32.5
2018-01-02T13:20:30.108Z,32.5
2018-01-02T13:21:32.060Z,32.5
2018-01-02T13:22:32.116Z,32.5
2018-01-02T13:23:30.032Z,32.5